createdAt,value
2022-10-22T00:00:10.040Z,1002.7
2022-10-22T00:03:30.094Z,1002.7
2022-10-22T00:04:36.923Z,1002.7
2022-10-22T00:05:43.695Z,1002.7
2022-10-22T00:06:50.432Z,1002.8
2022-10-22T00:07:57.014Z,1002.7
2022-10-22T00:09:03.879Z,1002.8
2022-10-22T00:10:10.626Z,1002.7
2022-10-22T00:11:17.323Z,1002.7
2022-10-22T00:14:37.402Z,1002.8
2022-10-22T00:15:44.258Z,1002.8
2022-10-22T00:16:50.271Z,1002.8
2022-10-22T00:19:03.718Z,1002.7
2022-10-22T00:20:10.447Z,1002.7
2022-10-22T00:22:23.916Z,1002.7
2022-10-22T00:23:30.605Z,1002.8
2022-10-22T00:24:37.232Z,1002.7
2022-10-22T00:26:50.787Z,1002.8
2022-10-22T00:27:57.513Z,1002.8
2022-10-22T00:30:11.051Z,1002.8
2022-10-22T00:31:16.881Z,1002.8
2022-10-22T00:32:23.619Z,1002.8
2022-10-22T00:33:30.488Z,1002.8
2022-10-22T00:35:43.919Z,1002.8
2022-10-22T00:36:50.630Z,1002.8
2022-10-22T00:37:57.412Z,1002.8
2022-10-22T00:39:04.058Z,1002.9
2022-10-22T00:40:10.713Z,1002.9
2022-10-22T00:41:17.595Z,1002.9
2022-10-22T00:43:31.051Z,1002.9
2022-10-22T00:45:44.513Z,1002.9
2022-10-22T00:47:57.222Z,1002.9
2022-10-22T00:49:03.956Z,1002.9
2022-10-22T00:51:17.437Z,1002.9
2022-10-22T00:52:24.154Z,1002.9
2022-10-22T00:54:37.476Z,1003.1
2022-10-22T00:55:44.356Z,1003.1
2022-10-22T00:56:51.017Z,1003
2022-10-22T00:59:04.538Z,1003.1
2022-10-22T01:00:11.267Z,1003.1
2022-10-22T01:01:17.120Z,1003.1
2022-10-22T01:02:23.973Z,1003
2022-10-22T01:04:37.452Z,1003
2022-10-22T01:05:44.188Z,1003
2022-10-22T01:06:50.923Z,1003
2022-10-22T01:07:57.492Z,1003
2022-10-22T01:09:04.366Z,1003
2022-10-22T01:10:11.119Z,1003
2022-10-22T01:11:17.819Z,1003
2022-10-22T01:12:24.559Z,1003
2022-10-22T01:13:31.282Z,1003
2022-10-22T01:15:44.744Z,1003
2022-10-22T01:16:50.646Z,1002.9
2022-10-22T01:17:57.482Z,1002.9
2022-10-22T01:20:10.791Z,1002.8
2022-10-22T01:22:24.382Z,1002.9
2022-10-22T01:24:37.833Z,1002.8
2022-10-22T01:25:44.529Z,1002.9
2022-10-22T01:26:51.381Z,1002.9
2022-10-22T01:27:58.051Z,1002.9
2022-10-22T01:29:04.744Z,1002.9
2022-10-22T01:30:11.532Z,1002.9
2022-10-22T01:32:24.237Z,1002.8
2022-10-22T01:35:44.362Z,1002.7
2022-10-22T01:36:51.163Z,1002.8
2022-10-22T01:37:57.862Z,1002.9
2022-10-22T01:39:04.614Z,1002.8
2022-10-22T01:40:11.195Z,1002.8
2022-10-22T01:42:24.655Z,1002.8
2022-10-22T01:43:31.527Z,1002.8
2022-10-22T01:44:38.254Z,1002.9
2022-10-22T01:46:54.100Z,1002.8
2022-10-22T01:49:07.552Z,1002.9
2022-10-22T01:50:13.577Z,1002.8
2022-10-22T01:53:36.690Z,1002.7
2022-10-22T01:54:43.522Z,1002.7
2022-10-22T01:56:56.877Z,1002.7
2022-10-22T01:59:10.337Z,1002.8
2022-10-22T02:00:17.079Z,1002.8
2022-10-22T02:02:30.532Z,1002.7
2022-10-22T02:03:37.259Z,1002.8
2022-10-22T02:04:43.312Z,1002.7
2022-10-22T02:05:50.143Z,1002.8
2022-10-22T02:06:56.866Z,1002.8
2022-10-22T02:08:03.446Z,1002.7
2022-10-22T02:09:10.329Z,1002.7
2022-10-22T02:10:16.901Z,1002.7
2022-10-22T02:11:23.775Z,1002.7
2022-10-22T02:12:30.361Z,1002.7
2022-10-22T02:13:37.101Z,1002.6
2022-10-22T02:14:43.954Z,1002.6
2022-10-22T02:18:04.140Z,1002.6
2022-10-22T02:19:10.128Z,1002.6
2022-10-22T02:21:23.594Z,1002.5
2022-10-22T02:22:30.343Z,1002.5
2022-10-22T02:23:36.926Z,1002.6
2022-10-22T02:24:43.799Z,1002.5
2022-10-22T02:25:50.541Z,1002.6
2022-10-22T02:26:57.122Z,1002.5
2022-10-22T02:28:03.942Z,1002.5
2022-10-22T02:29:10.613Z,1002.5
2022-10-22T02:30:17.401Z,1002.6
2022-10-22T02:32:30.918Z,1002.6
2022-10-22T02:33:36.873Z,1002.6
2022-10-22T02:34:43.539Z,1002.5
2022-10-22T02:35:50.371Z,1002.5
2022-10-22T02:39:10.469Z,1002.6
2022-10-22T02:40:17.145Z,1002.6
2022-10-22T02:41:24.034Z,1002.6
2022-10-22T02:42:30.725Z,1002.6
2022-10-22T02:43:37.470Z,1002.6
2022-10-22T02:46:57.529Z,1002.7
2022-10-22T02:49:10.394Z,1002.7
2022-10-22T02:50:16.977Z,1002.7
2022-10-22T02:52:30.433Z,1002.7
2022-10-22T02:53:37.289Z,1002.7
2022-10-22T02:54:43.930Z,1002.7
2022-10-22T02:55:50.760Z,1002.7
2022-10-22T02:58:04.216Z,1002.7
2022-10-22T02:59:10.822Z,1002.7
2022-10-22T03:00:17.550Z,1002.7
2022-10-22T03:01:24.272Z,1002.7
2022-10-22T03:02:31.007Z,1002.7
2022-10-22T03:03:37.083Z,1002.7
2022-10-22T03:05:50.609Z,1002.8
2022-10-22T03:08:03.926Z,1002.9
2022-10-22T03:09:10.784Z,1002.9
2022-10-22T03:11:24.129Z,1002.9
2022-10-22T03:13:37.565Z,1002.9
2022-10-22T03:15:51.158Z,1002.9
2022-10-22T03:16:57.906Z,1002.8
2022-10-22T03:18:03.888Z,1002.8
2022-10-22T03:22:30.671Z,1002.9
2022-10-22T03:23:37.429Z,1002.8
2022-10-22T03:24:44.176Z,1002.8
2022-10-22T03:25:50.856Z,1002.9
2022-10-22T03:26:57.626Z,1002.9
2022-10-22T03:28:04.435Z,1002.9
2022-10-22T03:30:17.821Z,1002.9
2022-10-22T03:31:24.606Z,1002.9
2022-10-22T03:32:30.508Z,1002.9
2022-10-22T03:33:37.234Z,1002.9
2022-10-22T03:34:44.038Z,1002.9
2022-10-22T03:38:04.159Z,1002.9
2022-10-22T03:39:10.930Z,1002.9
2022-10-22T03:40:17.623Z,1002.9
2022-10-22T03:41:24.348Z,1002.9
2022-10-22T03:42:31.073Z,1003
2022-10-22T03:43:37.803Z,1002.8
2022-10-22T03:44:44.531Z,1002.9
2022-10-22T03:46:58.011Z,1002.9
2022-10-22T03:48:03.990Z,1002.9
2022-10-22T03:51:24.179Z,1002.9
2022-10-22T03:53:37.642Z,1003
2022-10-22T03:54:44.390Z,1002.9
2022-10-22T03:55:51.106Z,1003
2022-10-22T03:56:57.837Z,1002.9
2022-10-22T03:58:04.552Z,1002.9
2022-10-22T03:59:11.286Z,1002.9
2022-10-22T04:00:18.023Z,1003
2022-10-22T04:01:24.741Z,1003
2022-10-22T04:02:30.744Z,1003
2022-10-22T04:04:44.204Z,1003
2022-10-22T04:05:50.931Z,1003
2022-10-22T04:06:57.653Z,1003
2022-10-22T04:08:04.399Z,1003.1
2022-10-22T04:09:11.117Z,1003
2022-10-22T04:10:17.859Z,1003
2022-10-22T04:11:24.578Z,1003
2022-10-22T04:12:31.311Z,1003
2022-10-22T04:13:38.040Z,1003
2022-10-22T04:15:51.501Z,1003
2022-10-22T04:18:04.226Z,1003.1
2022-10-22T04:19:10.964Z,1003.1
2022-10-22T04:22:31.148Z,1003.1
2022-10-22T04:23:37.876Z,1003
2022-10-22T04:24:44.610Z,1003.1
2022-10-22T04:25:51.332Z,1003.1
2022-10-22T04:28:04.796Z,1003.2
2022-10-22T04:29:11.529Z,1003.2
2022-10-22T04:30:18.254Z,1003.2
2022-10-22T04:31:24.257Z,1003.2
2022-10-22T04:33:37.715Z,1003.2
2022-10-22T04:34:44.445Z,1003.2
2022-10-22T04:39:11.356Z,1003.2
2022-10-22T04:41:24.818Z,1003.2
2022-10-22T04:42:31.553Z,1003.2
2022-10-22T04:43:38.289Z,1003.2
2022-10-22T04:45:51.737Z,1003.2
2022-10-22T04:46:57.741Z,1003.3
2022-10-22T04:48:04.466Z,1003.2
2022-10-22T04:49:11.191Z,1003.2
2022-10-22T04:50:17.922Z,1003.2
2022-10-22T04:51:24.660Z,1003.2
2022-10-22T04:52:31.386Z,1003.2
2022-10-22T04:53:38.109Z,1003.2
2022-10-22T04:54:44.846Z,1003.2
2022-10-22T04:58:05.028Z,1003.2
2022-10-22T04:59:11.759Z,1003.3
2022-10-22T05:00:18.494Z,1003.3
2022-10-22T05:01:24.496Z,1003.3
2022-10-22T05:02:31.219Z,1003.3
2022-10-22T05:03:37.954Z,1003.3
2022-10-22T05:04:44.676Z,1003.3
2022-10-22T05:05:51.410Z,1003.2
2022-10-22T05:08:04.869Z,1003.3
2022-10-22T05:09:11.591Z,1003.3
2022-10-22T05:10:18.323Z,1003.3
2022-10-22T05:11:25.064Z,1003.3
2022-10-22T05:12:31.784Z,1003.2
2022-10-22T05:14:45.266Z,1003.3
2022-10-22T05:15:51.246Z,1003.2
2022-10-22T05:16:57.982Z,1003.3
2022-10-22T05:18:04.706Z,1003.3
2022-10-22T05:19:11.431Z,1003.2
2022-10-22T05:20:18.166Z,1003.3
2022-10-22T05:21:24.893Z,1003.2
2022-10-22T05:22:31.618Z,1003.2
2022-10-22T05:24:45.112Z,1003.2
2022-10-22T05:25:51.807Z,1003.2
2022-10-22T05:26:58.552Z,1003.3
2022-10-22T05:28:05.266Z,1003.3
2022-10-22T05:30:18.733Z,1003.3
2022-10-22T05:31:24.746Z,1003.4
2022-10-22T05:32:31.459Z,1003.4
2022-10-22T05:33:37.494Z,1003.4
2022-10-22T05:34:47.283Z,1003.4
2022-10-22T05:35:54.017Z,1003.4
2022-10-22T05:37:00.760Z,1003.4
2022-10-22T05:38:07.467Z,1003.4
2022-10-22T05:39:14.198Z,1003.4
2022-10-22T05:40:20.940Z,1003.4
2022-10-22T05:41:27.672Z,1003.4
2022-10-22T05:42:34.390Z,1003.4
2022-10-22T05:43:41.125Z,1003.4
2022-10-22T05:44:47.841Z,1003.4
2022-10-22T05:45:54.583Z,1003.5
2022-10-22T05:47:01.310Z,1003.5
2022-10-22T05:48:07.344Z,1003.5
2022-10-22T05:49:14.072Z,1003.5
2022-10-22T05:50:20.073Z,1003.5
2022-10-22T05:51:26.797Z,1003.5
2022-10-22T05:52:33.626Z,1003.6
2022-10-22T05:55:53.723Z,1003.6
2022-10-22T05:57:00.455Z,1003.6
2022-10-22T05:58:07.176Z,1003.7
2022-10-22T06:00:20.645Z,1003.7
2022-10-22T06:01:27.371Z,1003.6
2022-10-22T06:03:40.837Z,1003.7
2022-10-22T06:04:46.867Z,1003.7
2022-10-22T06:05:52.862Z,1003.7
2022-10-22T06:06:59.595Z,1003.7
2022-10-22T06:08:06.328Z,1003.7
2022-10-22T06:09:13.062Z,1003.7
2022-10-22T06:10:19.777Z,1003.7
2022-10-22T06:12:33.243Z,1003.7
2022-10-22T06:13:39.972Z,1003.7
2022-10-22T06:14:46.695Z,1003.7
2022-10-22T06:15:53.426Z,1003.7
2022-10-22T06:17:00.156Z,1003.8
2022-10-22T06:18:06.887Z,1003.8
2022-10-22T06:19:13.645Z,1003.8
2022-10-22T06:20:19.619Z,1003.8
2022-10-22T06:21:26.341Z,1003.8
2022-10-22T06:22:33.080Z,1003.9
2022-10-22T06:25:53.264Z,1003.9
2022-10-22T06:26:59.996Z,1003.9
2022-10-22T06:28:06.724Z,1003.8
2022-10-22T06:29:13.459Z,1004
2022-10-22T06:30:20.187Z,1004
2022-10-22T06:31:26.919Z,1004
2022-10-22T06:32:33.652Z,1004
2022-10-22T06:33:40.372Z,1004
2022-10-22T06:34:46.372Z,1004
2022-10-22T06:35:53.103Z,1004
2022-10-22T06:36:59.858Z,1004.1
2022-10-22T06:38:06.699Z,1004.1
2022-10-22T06:40:20.064Z,1004.1
2022-10-22T06:44:47.422Z,1004.2
2022-10-22T06:50:20.594Z,1004.3
2022-10-22T06:51:27.316Z,1004.3
2022-10-22T06:52:34.167Z,1004.3
2022-10-22T06:53:40.157Z,1004.3
2022-10-22T06:57:00.340Z,1004.4
2022-10-22T06:58:07.035Z,1004.4
2022-10-22T06:59:13.818Z,1004.4
2022-10-22T07:00:20.424Z,1004.4
2022-10-22T07:01:27.285Z,1004.4
2022-10-22T07:03:40.740Z,1004.4
2022-10-22T07:04:47.359Z,1004.4
2022-10-22T07:05:54.179Z,1004.5
2022-10-22T07:07:00.961Z,1004.5
2022-10-22T07:08:06.942Z,1004.5
2022-10-22T07:10:20.253Z,1004.4
2022-10-22T07:11:27.101Z,1004.5
2022-10-22T07:12:33.874Z,1004.4
2022-10-22T07:13:40.445Z,1004.5
2022-10-22T07:14:47.312Z,1004.4
2022-10-22T07:15:54.061Z,1004.5
2022-10-22T07:17:00.778Z,1004.5
2022-10-22T07:18:07.522Z,1004.5
2022-10-22T07:19:14.235Z,1004.5
2022-10-22T07:20:20.934Z,1004.6
2022-10-22T07:22:34.395Z,1004.7
2022-10-22T07:23:40.395Z,1004.6
2022-10-22T07:27:00.576Z,1004.6
2022-10-22T07:28:07.281Z,1004.7
2022-10-22T07:29:14.037Z,1004.7
2022-10-22T07:30:20.826Z,1004.7
2022-10-22T07:31:27.480Z,1004.8
2022-10-22T07:32:34.215Z,1004.8
2022-10-22T07:33:40.987Z,1004.8
2022-10-22T07:35:54.434Z,1004.8
2022-10-22T07:39:14.660Z,1004.8
2022-10-22T07:40:21.379Z,1004.8
2022-10-22T07:41:27.374Z,1004.9
2022-10-22T07:42:33.953Z,1004.9
2022-10-22T07:43:40.849Z,1004.9
2022-10-22T07:44:47.553Z,1004.9
2022-10-22T07:47:01.008Z,1004.9
2022-10-22T07:48:07.610Z,1004.9
2022-10-22T07:50:21.175Z,1004.9
2022-10-22T07:51:27.876Z,1005
2022-10-22T07:52:34.650Z,1005
2022-10-22T07:54:48.072Z,1005
2022-10-22T07:55:54.838Z,1005
2022-10-22T07:57:01.518Z,1005
2022-10-22T07:58:08.294Z,1005
2022-10-22T08:00:20.900Z,1005.1
2022-10-22T08:01:27.620Z,1005.1
2022-10-22T08:02:34.497Z,1005
2022-10-22T08:03:41.115Z,1005.1
2022-10-22T08:05:54.580Z,1005.1
2022-10-22T08:07:01.295Z,1005.1
2022-10-22T08:08:07.995Z,1005.2
2022-10-22T08:09:14.894Z,1005.1
2022-10-22T08:10:21.537Z,1005.2
2022-10-22T08:12:35.032Z,1005.2
2022-10-22T08:14:48.391Z,1005.2
2022-10-22T08:15:54.458Z,1005.2
2022-10-22T08:20:21.363Z,1005.2
2022-10-22T08:21:28.025Z,1005.2
2022-10-22T08:23:41.518Z,1005.1
2022-10-22T08:24:48.209Z,1005.1
2022-10-22T08:27:01.808Z,1005.1
2022-10-22T08:28:08.537Z,1005.2
2022-10-22T08:29:15.256Z,1005.1
2022-10-22T08:30:21.865Z,1005.1
2022-10-22T08:31:28.687Z,1005.1
2022-10-22T08:33:42.077Z,1005.1
2022-10-22T08:34:48.133Z,1005.1
2022-10-22T08:35:54.877Z,1005.2
2022-10-22T08:37:01.566Z,1005.1
2022-10-22T08:38:08.353Z,1005.1
2022-10-22T08:41:28.430Z,1005.2
2022-10-22T08:42:35.249Z,1005.2
2022-10-22T08:43:42.011Z,1005.2
2022-10-22T08:47:02.115Z,1005.3
2022-10-22T08:48:08.892Z,1005.3
2022-10-22T08:50:21.549Z,1005.3
2022-10-22T08:51:28.259Z,1005.3
2022-10-22T08:52:35.174Z,1005.4
2022-10-22T08:54:48.544Z,1005.3
2022-10-22T08:55:55.265Z,1005.4
2022-10-22T08:57:02.025Z,1005.3
2022-10-22T08:58:08.743Z,1005.4
2022-10-22T08:59:15.419Z,1005.4
2022-10-22T09:00:22.096Z,1005.5
2022-10-22T09:01:28.873Z,1005.4
2022-10-22T09:02:35.710Z,1005.4
2022-10-22T09:05:55.871Z,1005.5
2022-10-22T09:08:09.334Z,1005.5
2022-10-22T09:09:15.350Z,1005.5
2022-10-22T09:10:22.044Z,1005.5
2022-10-22T09:12:35.530Z,1005.5
2022-10-22T09:13:42.124Z,1005.5
2022-10-22T09:14:48.972Z,1005.6
2022-10-22T09:15:55.710Z,1005.5
2022-10-22T09:17:02.474Z,1005.6
2022-10-22T09:19:15.767Z,1005.6
2022-10-22T09:20:22.597Z,1005.6
2022-10-22T09:21:28.620Z,1005.6
2022-10-22T09:22:38.487Z,1005.6
2022-10-22T09:23:45.205Z,1005.6
2022-10-22T09:25:58.637Z,1005.6
2022-10-22T09:27:05.393Z,1005.6
2022-10-22T09:29:18.720Z,1005.7
2022-10-22T09:30:25.566Z,1005.7
2022-10-22T09:31:32.266Z,1005.7
2022-10-22T09:32:39.047Z,1005.8
2022-10-22T09:33:45.768Z,1005.7
2022-10-22T09:34:52.512Z,1005.7
2022-10-22T09:35:59.091Z,1005.7
2022-10-22T09:37:05.809Z,1005.7
2022-10-22T09:39:18.708Z,1005.8
2022-10-22T09:40:25.423Z,1005.8
2022-10-22T09:41:32.155Z,1005.8
2022-10-22T09:42:38.826Z,1005.8
2022-10-22T09:43:45.597Z,1005.8
2022-10-22T09:44:52.353Z,1005.8
2022-10-22T09:45:59.051Z,1005.8
2022-10-22T09:47:05.783Z,1005.8
2022-10-22T09:48:12.557Z,1005.8
2022-10-22T09:49:19.228Z,1005.8
2022-10-22T09:50:25.953Z,1005.9
2022-10-22T09:51:32.724Z,1005.8
2022-10-22T09:52:39.303Z,1005.9
2022-10-22T09:53:45.496Z,1005.9
2022-10-22T09:55:58.064Z,1005.9
2022-10-22T09:57:04.924Z,1005.9
2022-10-22T09:58:11.679Z,1005.9
2022-10-22T10:03:45.262Z,1006
2022-10-22T10:04:51.992Z,1006.1
2022-10-22T10:05:58.772Z,1006
2022-10-22T10:08:12.144Z,1006.1
2022-10-22T10:09:18.950Z,1006.1
2022-10-22T10:12:38.274Z,1006.2
2022-10-22T10:13:45.112Z,1006.2
2022-10-22T10:14:51.779Z,1006.2
2022-10-22T10:15:58.579Z,1006.2
2022-10-22T10:19:18.798Z,1006.2
2022-10-22T10:20:25.548Z,1006.2
2022-10-22T10:21:32.108Z,1006.2
2022-10-22T10:22:38.996Z,1006.3
2022-10-22T10:25:59.193Z,1006.2
2022-10-22T10:27:05.155Z,1006.2
2022-10-22T10:28:11.228Z,1006.3
2022-10-22T10:29:17.948Z,1006.3
2022-10-22T10:30:24.656Z,1006.3
2022-10-22T10:33:44.886Z,1006.3
2022-10-22T10:34:51.577Z,1006.3
2022-10-22T10:35:58.223Z,1006.3
2022-10-22T10:38:11.702Z,1006.3
2022-10-22T10:41:31.953Z,1006.4
2022-10-22T10:43:45.310Z,1006.4
2022-10-22T10:52:39.120Z,1006.5
2022-10-22T10:53:45.850Z,1006.5
2022-10-22T10:54:52.596Z,1006.5
2022-10-22T10:55:59.309Z,1006.6
2022-10-22T10:57:06.045Z,1006.5
2022-10-22T10:58:12.059Z,1006.5
2022-10-22T10:59:18.771Z,1006.5
2022-10-22T11:01:32.225Z,1006.5
2022-10-22T11:02:38.982Z,1006.5
2022-10-22T11:03:45.706Z,1006.5
2022-10-22T11:04:52.440Z,1006.5
2022-10-22T11:07:05.932Z,1006.5
2022-10-22T11:09:19.345Z,1006.5
2022-10-22T11:11:32.824Z,1006.5
2022-10-22T11:12:39.524Z,1006.5
2022-10-22T11:14:52.979Z,1006.5
2022-10-22T11:18:13.181Z,1006.6
2022-10-22T11:21:33.371Z,1006.6
2022-10-22T11:27:06.282Z,1006.5
2022-10-22T11:28:13.012Z,1006.5
2022-10-22T11:29:19.755Z,1006.5
2022-10-22T11:30:26.473Z,1006.5
2022-10-22T11:33:46.669Z,1006.5
2022-10-22T11:34:53.400Z,1006.6
2022-10-22T11:36:00.122Z,1006.6
2022-10-22T11:37:06.925Z,1006.7
2022-10-22T11:40:26.309Z,1006.6
2022-10-22T11:43:46.503Z,1006.5
2022-10-22T11:44:53.223Z,1006.6
2022-10-22T11:48:13.411Z,1006.6
2022-10-22T11:52:40.333Z,1006.6
2022-10-22T11:53:46.332Z,1006.6
2022-10-22T11:54:53.060Z,1006.6
2022-10-22T11:57:06.525Z,1006.7
2022-10-22T11:58:13.262Z,1006.6
2022-10-22T11:59:19.977Z,1006.6
2022-10-22T12:00:26.710Z,1006.6
2022-10-22T12:01:33.434Z,1006.7
2022-10-22T12:02:40.172Z,1006.7
2022-10-22T12:08:13.919Z,1006.7
2022-10-22T12:10:27.317Z,1006.8
2022-10-22T12:11:34.066Z,1006.8
2022-10-22T12:13:47.467Z,1006.9
2022-10-22T12:14:54.190Z,1006.8
2022-10-22T12:17:06.947Z,1006.9
2022-10-22T12:19:20.385Z,1006.9
2022-10-22T12:20:27.227Z,1006.9
2022-10-22T12:22:40.591Z,1006.9
2022-10-22T12:23:47.298Z,1006.9
2022-10-22T12:24:54.025Z,1006.9
2022-10-22T12:26:00.784Z,1006.9
2022-10-22T12:29:20.948Z,1007
2022-10-22T12:30:26.946Z,1007
2022-10-22T12:31:33.678Z,1007
2022-10-22T12:32:40.408Z,1007
2022-10-22T12:33:47.159Z,1006.9
2022-10-22T12:34:53.880Z,1006.9
2022-10-22T12:36:00.613Z,1006.9
2022-10-22T12:38:14.091Z,1006.9
2022-10-22T12:39:20.799Z,1006.9
2022-10-22T12:40:27.529Z,1006.8
2022-10-22T12:41:34.239Z,1006.9
2022-10-22T12:42:40.968Z,1006.9
2022-10-22T12:43:47.709Z,1006.8
2022-10-22T12:46:00.444Z,1006.8
2022-10-22T12:47:07.245Z,1006.9
2022-10-22T12:48:13.930Z,1006.8
2022-10-22T12:49:20.621Z,1006.8
2022-10-22T12:50:27.350Z,1006.8
2022-10-22T12:51:34.081Z,1006.8
2022-10-22T12:52:40.808Z,1006.8
2022-10-22T12:54:54.313Z,1006.8
2022-10-22T12:56:01.003Z,1006.8
2022-10-22T12:57:07.760Z,1006.8
2022-10-22T12:58:14.467Z,1006.8
2022-10-22T12:59:20.498Z,1006.8
2022-10-22T13:00:27.186Z,1006.7
2022-10-22T13:01:34.000Z,1006.7
2022-10-22T13:02:40.650Z,1006.7
2022-10-22T13:03:47.402Z,1006.7
2022-10-22T13:04:53.416Z,1006.7
2022-10-22T13:07:09.936Z,1006.7
2022-10-22T13:08:16.666Z,1006.8
2022-10-22T13:10:30.153Z,1006.8
2022-10-22T13:11:36.858Z,1006.7
2022-10-22T13:12:43.580Z,1006.8
2022-10-22T13:13:50.323Z,1006.8
2022-10-22T13:14:57.077Z,1006.7
2022-10-22T13:16:03.775Z,1006.8
2022-10-22T13:17:10.498Z,1006.8
2022-10-22T13:18:17.235Z,1006.8
2022-10-22T13:19:23.228Z,1006.8
2022-10-22T13:20:29.960Z,1006.8
2022-10-22T13:21:36.681Z,1006.7
2022-10-22T13:24:56.874Z,1006.7
2022-10-22T13:26:03.604Z,1006.7
2022-10-22T13:28:17.073Z,1006.7
2022-10-22T13:29:23.801Z,1006.8
2022-10-22T13:31:37.252Z,1006.7
2022-10-22T13:33:50.767Z,1006.7
2022-10-22T13:34:56.707Z,1006.7
2022-10-22T13:37:10.169Z,1006.7
2022-10-22T13:38:16.901Z,1006.7
2022-10-22T13:39:23.635Z,1006.7
2022-10-22T13:40:30.361Z,1006.7
2022-10-22T13:41:37.094Z,1006.7
2022-10-22T13:42:43.821Z,1006.8
2022-10-22T13:44:57.290Z,1006.7
2022-10-22T13:46:04.045Z,1006.7
2022-10-22T13:47:10.745Z,1006.8
2022-10-22T13:48:17.472Z,1006.8
2022-10-22T13:49:23.506Z,1006.8
2022-10-22T13:50:30.191Z,1006.8
2022-10-22T13:52:43.659Z,1006.9
2022-10-22T13:53:50.384Z,1006.8
2022-10-22T13:56:03.870Z,1006.9
2022-10-22T13:57:10.608Z,1006.9
2022-10-22T13:58:17.312Z,1006.9
2022-10-22T14:01:37.490Z,1006.9
2022-10-22T14:03:50.985Z,1006.9
2022-10-22T14:04:56.975Z,1006.9
2022-10-22T14:06:03.700Z,1006.9
2022-10-22T14:07:10.478Z,1006.9
2022-10-22T14:08:17.133Z,1007
2022-10-22T14:09:23.915Z,1007
2022-10-22T14:10:30.605Z,1007
2022-10-22T14:12:44.049Z,1007
2022-10-22T14:13:50.851Z,1007
2022-10-22T14:16:04.261Z,1007.1
2022-10-22T14:20:31.159Z,1007.1
2022-10-22T14:21:37.915Z,1007.2
2022-10-22T14:22:44.618Z,1007.1
2022-10-22T14:23:50.629Z,1007.2
2022-10-22T14:24:57.380Z,1007.2
2022-10-22T14:26:04.127Z,1007.1
2022-10-22T14:27:10.807Z,1007.2
2022-10-22T14:28:17.603Z,1007.1
2022-10-22T14:30:31.088Z,1007.1
2022-10-22T14:31:37.728Z,1007.1
2022-10-22T14:32:44.464Z,1007.1
2022-10-22T14:34:57.917Z,1007.1
2022-10-22T14:36:04.835Z,1007.2
2022-10-22T14:37:11.376Z,1007.2
2022-10-22T14:38:18.102Z,1007.1
2022-10-22T14:39:24.156Z,1007.2
2022-10-22T14:40:30.828Z,1007.2
2022-10-22T14:41:37.563Z,1007.2
2022-10-22T14:42:44.294Z,1007.2
2022-10-22T14:43:51.024Z,1007.2
2022-10-22T14:46:04.479Z,1007.2
2022-10-22T14:47:11.323Z,1007.2
2022-10-22T14:49:24.708Z,1007.1
2022-10-22T14:50:31.395Z,1007.2
2022-10-22T14:52:44.897Z,1007.2
2022-10-22T14:53:51.610Z,1007.2
2022-10-22T14:54:58.313Z,1007.2
2022-10-22T14:57:11.043Z,1007.2
2022-10-22T14:58:17.781Z,1007.2
2022-10-22T15:00:31.243Z,1007.2
2022-10-22T15:01:37.983Z,1007.2
2022-10-22T15:02:44.688Z,1007.2
2022-10-22T15:03:51.460Z,1007.2
2022-10-22T15:04:58.157Z,1007.2
2022-10-22T15:06:04.908Z,1007.2
2022-10-22T15:08:18.336Z,1007.2
2022-10-22T15:09:25.074Z,1007.2
2022-10-22T15:12:44.569Z,1007.3
2022-10-22T15:14:58.008Z,1007.3
2022-10-22T15:16:04.721Z,1007.2
2022-10-22T15:17:11.479Z,1007.3
2022-10-22T15:18:18.207Z,1007.3
2022-10-22T15:21:38.433Z,1007.2
2022-10-22T15:22:45.095Z,1007.3
2022-10-22T15:23:51.856Z,1007.3
2022-10-22T15:24:57.836Z,1007.2
2022-10-22T15:26:04.617Z,1007.2
2022-10-22T15:27:11.281Z,1007.2
2022-10-22T15:28:18.023Z,1007.2
2022-10-22T15:30:31.534Z,1007.3
2022-10-22T15:31:38.196Z,1007.2
2022-10-22T15:34:58.475Z,1007.2
2022-10-22T15:36:05.137Z,1007.2
2022-10-22T15:37:11.880Z,1007.2
2022-10-22T15:38:18.614Z,1007.3
2022-10-22T15:40:31.297Z,1007.2
2022-10-22T15:42:44.790Z,1007.2
2022-10-22T15:43:51.643Z,1007.3
2022-10-22T15:46:04.961Z,1007.3
2022-10-22T15:48:18.454Z,1007.3
2022-10-22T15:49:25.139Z,1007.3
2022-10-22T15:52:45.478Z,1007.3
2022-10-22T15:54:58.942Z,1007.4
2022-10-22T15:56:04.923Z,1007.4
2022-10-22T15:57:11.516Z,1007.3
2022-10-22T15:59:25.016Z,1007.4
2022-10-22T16:00:31.699Z,1007.4
2022-10-22T16:01:38.436Z,1007.4
2022-10-22T16:02:45.194Z,1007.4
2022-10-22T16:03:51.995Z,1007.4
2022-10-22T16:04:58.709Z,1007.5
2022-10-22T16:06:05.499Z,1007.4
2022-10-22T16:07:12.133Z,1007.5
2022-10-22T16:08:18.804Z,1007.5
2022-10-22T16:09:25.535Z,1007.5
2022-10-22T16:12:45.788Z,1007.6
2022-10-22T16:14:58.456Z,1007.6
2022-10-22T16:16:05.183Z,1007.6
2022-10-22T16:18:18.646Z,1007.6
2022-10-22T16:19:25.370Z,1007.6
2022-10-22T16:20:32.153Z,1007.7
2022-10-22T16:21:38.841Z,1007.6
2022-10-22T16:22:45.568Z,1007.7
2022-10-22T16:23:52.349Z,1007.7
2022-10-22T16:24:59.038Z,1007.7
2022-10-22T16:26:05.747Z,1007.7
2022-10-22T16:27:12.486Z,1007.7
2022-10-22T16:28:18.479Z,1007.7
2022-10-22T16:30:31.938Z,1007.7
2022-10-22T16:32:45.398Z,1007.7
2022-10-22T16:34:58.855Z,1007.7
2022-10-22T16:37:12.326Z,1007.7
2022-10-22T16:38:19.067Z,1007.7
2022-10-22T16:39:25.811Z,1007.7
2022-10-22T16:40:32.550Z,1007.7
2022-10-22T16:41:39.254Z,1007.7
2022-10-22T16:43:51.953Z,1007.7
2022-10-22T16:44:58.752Z,1007.7
2022-10-22T16:46:05.449Z,1007.8
2022-10-22T16:47:12.175Z,1007.7
2022-10-22T16:48:18.233Z,1007.8
2022-10-22T16:53:54.895Z,1007.8
2022-10-22T16:55:01.636Z,1007.8
2022-10-22T16:56:08.346Z,1007.9
2022-10-22T16:57:15.132Z,1007.8
2022-10-22T16:58:21.811Z,1007.8
2022-10-22T16:59:28.599Z,1007.8
2022-10-22T17:00:35.278Z,1007.8
2022-10-22T17:01:42.008Z,1007.8
2022-10-22T17:02:48.758Z,1007.8
2022-10-22T17:03:54.729Z,1007.9
2022-10-22T17:05:01.493Z,1007.8
2022-10-22T17:07:14.953Z,1007.8
2022-10-22T17:08:21.644Z,1007.9
2022-10-22T17:09:28.381Z,1007.9
2022-10-22T17:10:35.143Z,1007.9
2022-10-22T17:11:41.844Z,1007.9
2022-10-22T17:12:48.562Z,1007.9
2022-10-22T17:15:02.065Z,1008
2022-10-22T17:16:08.750Z,1008
2022-10-22T17:17:15.482Z,1008
2022-10-22T17:18:21.477Z,1008
2022-10-22T17:19:28.226Z,1008
2022-10-22T17:21:41.663Z,1008
2022-10-22T17:22:48.400Z,1008
2022-10-22T17:23:55.129Z,1008
2022-10-22T17:25:01.864Z,1008
2022-10-22T17:27:15.318Z,1008
2022-10-22T17:28:22.043Z,1008
2022-10-22T17:29:28.772Z,1008
2022-10-22T17:30:35.513Z,1008
2022-10-22T17:31:42.231Z,1008.1
2022-10-22T17:33:55.708Z,1008
2022-10-22T17:39:28.608Z,1008
2022-10-22T17:40:35.342Z,1008.1
2022-10-22T17:41:42.134Z,1008.1
2022-10-22T17:42:48.796Z,1008.1
2022-10-22T17:43:55.526Z,1008.1
2022-10-22T17:45:02.265Z,1008.1
2022-10-22T17:46:08.983Z,1008.1
2022-10-22T17:47:15.738Z,1008.1
2022-10-22T17:48:22.440Z,1008.1
2022-10-22T17:49:28.441Z,1008.1
2022-10-22T17:50:35.189Z,1008.1
2022-10-22T17:52:48.633Z,1008.1
2022-10-22T17:53:55.364Z,1008.1
2022-10-22T17:55:02.084Z,1008.1
2022-10-22T17:56:08.881Z,1008.2
2022-10-22T17:58:22.289Z,1008.2
2022-10-22T17:59:29.018Z,1008.2
2022-10-22T18:00:35.739Z,1008.2
2022-10-22T18:02:49.200Z,1008.3
2022-10-22T18:03:55.204Z,1008.3
2022-10-22T18:05:01.928Z,1008.3
2022-10-22T18:06:08.660Z,1008.3
2022-10-22T18:07:15.394Z,1008.3
2022-10-22T18:08:22.127Z,1008.3
2022-10-22T18:09:28.852Z,1008.3
2022-10-22T18:10:35.595Z,1008.3
2022-10-22T18:11:42.303Z,1008.2
2022-10-22T18:12:49.026Z,1008.3
2022-10-22T18:13:55.758Z,1008.3
2022-10-22T18:15:02.495Z,1008.3
2022-10-22T18:16:09.213Z,1008.2
2022-10-22T18:17:15.955Z,1008.3
2022-10-22T18:18:21.948Z,1008.3
2022-10-22T18:19:28.669Z,1008.3
2022-10-22T18:20:35.431Z,1008.3
2022-10-22T18:21:41.440Z,1008.3
2022-10-22T18:22:47.447Z,1008.3
2022-10-22T18:23:54.205Z,1008.3
2022-10-22T18:25:00.899Z,1008.3
2022-10-22T18:27:14.360Z,1008.4
2022-10-22T18:28:21.086Z,1008.4
2022-10-22T18:29:27.815Z,1008.4
2022-10-22T18:30:34.726Z,1008.4
2022-10-22T18:31:41.278Z,1008.4
2022-10-22T18:32:48.024Z,1008.4
2022-10-22T18:33:54.769Z,1008.5
2022-10-22T18:35:01.495Z,1008.5
2022-10-22T18:36:08.197Z,1008.4
2022-10-22T18:37:14.193Z,1008.5
2022-10-22T18:38:20.942Z,1008.4
2022-10-22T18:39:27.709Z,1008.5
2022-10-22T18:40:34.383Z,1008.4
2022-10-22T18:41:41.116Z,1008.4
2022-10-22T18:42:47.890Z,1008.4
2022-10-22T18:43:54.584Z,1008.3
2022-10-22T18:45:01.313Z,1008.3